Time;durP1;ratioP1;P1;durP2;ratioP2;P2;SDS_P1;SDS_P2;PMS_P1;PMS_P2;Temp;Humidity;BMP_temperature;BMP_pressure;BME280_temperature;BME280_humidity;BME280_pressure;Samples;Min_cycle;Max_cycle;Signal;HPM_P1;HPM_P2
2023/01/12 00:01:06;;;;;;;19.33;3.72;;;8.50;99.90;;;;;;5049489;28;20052;-63
2023/01/12 00:03:32;;;;;;;14.48;3.35;;;8.50;99.90;;;;;;5050636;28;20199;-62
2023/01/12 00:06:02;;;;;;;17.52;3.70;;;8.50;99.90;;;;;;5022307;28;20124;-63
2023/01/12 00:08:28;;;;;;;18.67;4.00;;;8.50;99.90;;;;;;5023172;28;20519;-62
2023/01/12 00:10:57;;;;;;;17.85;3.53;;;8.50;99.90;;;;;;5028962;28;20270;-62
2023/01/12 00:13:22;;;;;;;15.15;3.35;;;8.50;99.90;;;;;;5043524;28;20037;-64
2023/01/12 00:18:32;;;;;;;15.75;3.80;;;8.40;99.90;;;;;;5032703;28;20037;-63
2023/01/12 00:20:57;;;;;;;18.33;3.80;;;8.50;99.90;;;;;;5045356;28;20033;-63
2023/01/12 00:23:24;;;;;;;22.92;4.07;;;8.50;99.90;;;;;;5021669;28;20036;-63
2023/01/12 00:25:51;;;;;;;17.80;3.83;;;8.50;99.90;;;;;;5049837;28;20079;-62
2023/01/12 00:28:16;;;;;;;16.17;3.28;;;8.50;99.90;;;;;;5045518;28;20115;-62
2023/01/12 00:30:42;;;;;;;16.98;3.35;;;8.50;99.90;;;;;;5031621;28;20167;-62
2023/01/12 00:33:07;;;;;;;19.17;3.90;;;8.50;99.90;;;;;;5032769;28;20445;-63
2023/01/12 00:35:35;;;;;;;15.77;3.42;;;8.50;99.90;;;;;;5047640;28;20553;-65
2023/01/12 00:38:01;;;;;;;15.85;3.13;;;8.40;99.90;;;;;;5023525;28;20391;-62
2023/01/12 00:40:26;;;;;;;18.08;3.30;;;8.40;99.90;;;;;;5025556;28;20029;-63
2023/01/12 00:45:36;;;;;;;19.95;3.97;;;8.50;99.90;;;;;;5042120;28;20036;-63
2023/01/12 00:48:01;;;;;;;18.10;3.67;;;8.50;99.90;;;;;;5053495;28;20045;-65
2023/01/12 00:50:27;;;;;;;20.58;3.75;;;8.60;99.90;;;;;;5044548;28;20048;-63
2023/01/12 00:52:52;;;;;;;22.40;3.40;;;9.00;99.90;;;;;;5041255;28;20044;-63
2023/01/12 00:55:18;;;;;;;22.75;3.30;;;8.60;99.90;;;;;;5039281;28;20045;-63
2023/01/12 00:57:44;;;;;;;22.80;4.15;;;8.60;99.90;;;;;;5050526;28;20083;-64
2023/01/12 01:00:10;;;;;;;11.32;3.33;;;8.60;99.90;;;;;;5045360;28;20032;-64
2023/01/12 01:02:36;;;;;;;16.75;3.22;;;8.60;99.90;;;;;;5030798;28;20131;-65
2023/01/12 01:05:01;;;;;;;15.02;3.80;;;8.60;99.90;;;;;;5036794;28;20116;-62
2023/01/12 01:07:27;;;;;;;13.02;3.15;;;8.70;99.90;;;;;;5026081;28;20041;-63
2023/01/12 01:09:53;;;;;;;18.23;3.63;;;8.70;99.90;;;;;;5029194;28;20045;-63
2023/01/12 01:12:19;;;;;;;24.83;3.63;;;8.60;99.90;;;;;;5044451;28;20044;-63
2023/01/12 01:14:46;;;;;;;17.65;3.50;;;8.60;99.90;;;;;;5028081;28;20032;-66
2023/01/12 01:17:11;;;;;;;18.27;3.38;;;8.60;99.90;;;;;;5042111;28;20041;-62
2023/01/12 01:19:37;;;;;;;15.43;3.33;;;8.60;99.90;;;;;;5042908;28;20091;-62
2023/01/12 01:22:03;;;;;;;17.55;3.53;;;8.60;99.90;;;;;;5041103;28;20515;-64
2023/01/12 01:24:28;;;;;;;21.40;3.65;;;8.70;99.90;;;;;;5036412;28;20534;-64
2023/01/12 01:26:54;;;;;;;17.67;2.90;;;8.60;99.90;;;;;;5045917;28;20041;-63
2023/01/12 01:29:21;;;;;;;23.10;3.53;;;8.70;99.90;;;;;;5025282;28;20102;-65
2023/01/12 01:31:46;;;;;;;17.08;4.15;;;8.70;99.90;;;;;;5018093;28;20122;-63
2023/01/12 01:34:12;;;;;;;15.63;2.97;;;8.70;99.90;;;;;;5049787;28;20033;-63
2023/01/12 01:36:38;;;;;;;14.05;3.25;;;8.70;99.90;;;;;;5043840;28;20036;-63
2023/01/12 01:39:04;;;;;;;16.02;3.97;;;8.70;99.90;;;;;;5031738;28;20056;-63
2023/01/12 01:41:31;;;;;;;21.50;4.10;;;8.70;99.90;;;;;;5041483;28;20061;-63
2023/01/12 01:44:28;;;;;;;24.65;3.95;;;8.70;99.90;;;;;;5048961;28;20036;-63
2023/01/12 01:46:58;;;;;;;18.05;3.70;;;8.70;99.90;;;;;;5038911;28;20072;-64
2023/01/12 01:49:36;;;;;;;17.42;3.90;;;8.70;99.90;;;;;;5036962;28;20406;-64
2023/01/12 01:52:05;;;;;;;13.27;3.05;;;8.70;99.90;;;;;;5028177;28;20112;-63
2023/01/12 01:54:36;;;;;;;16.70;3.75;;;8.70;99.90;;;;;;5028730;28;20046;-63
2023/01/12 01:57:03;;;;;;;18.50;3.58;;;8.70;99.90;;;;;;5043557;28;20095;-63
2023/01/12 01:59:33;;;;;;;16.73;3.42;;;8.70;99.90;;;;;;5030821;28;20072;-64
2023/01/12 02:01:59;;;;;;;17.83;3.45;;;8.60;99.90;;;;;;5032629;28;20040;-64
2023/01/12 02:04:25;;;;;;;16.90;3.60;;;8.60;99.90;;;;;;5047509;28;20036;-63
2023/01/12 02:06:55;;;;;;;17.42;3.72;;;8.60;99.90;;;;;;5039348;28;20107;-64
2023/01/12 02:09:24;;;;;;;16.10;3.60;;;8.60;99.90;;;;;;5045275;28;20471;-63
2023/01/12 02:17:19;;;;;;;23.77;4.28;;;8.70;99.90;;;;;;5022076;28;20496;-63
2023/01/12 02:20:03;;;;;;;16.33;3.40;;;8.70;99.90;;;;;;5048746;28;20057;-63
2023/01/12 02:23:00;;;;;;;17.05;4.25;;;8.70;99.90;;;;;;5025559;28;20068;-63
2023/01/12 02:25:57;;;;;;;16.50;3.80;;;8.70;99.90;;;;;;5042263;28;20276;-63
2023/01/12 02:29:12;;;;;;;18.20;3.10;;;8.70;99.90;;;;;;5021204;28;20045;-64
2023/01/12 02:31:58;;;;;;;15.32;3.53;;;8.80;99.90;;;;;;4965077;28;20119;-64
2023/01/12 02:34:34;;;;;;;18.02;4.32;;;8.70;99.90;;;;;;5041417;28;20037;-64
2023/01/12 02:37:23;;;;;;;16.23;3.30;;;8.80;99.90;;;;;;5033293;28;20045;-64
2023/01/12 02:39:58;;;;;;;20.50;4.03;;;8.80;99.90;;;;;;5032940;28;20127;-64
2023/01/12 02:42:40;;;;;;;18.42;3.08;;;8.80;99.90;;;;;;5034684;28;20056;-64
2023/01/12 02:45:31;;;;;;;16.30;3.47;;;8.80;99.90;;;;;;5047044;28;20048;-63
2023/01/12 02:47:56;;;;;;;15.15;3.67;;;8.80;99.90;;;;;;5052183;28;20041;-64
2023/01/12 02:50:51;;;;;;;18.77;3.20;;;8.80;99.90;;;;;;5049296;28;20476;-64
2023/01/12 02:53:30;;;;;;;19.10;3.92;;;8.80;99.90;;;;;;5030075;28;20522;-64
2023/01/12 02:56:02;;;;;;;23.38;4.05;;;8.90;99.90;;;;;;5026771;28;20084;-63
2023/01/12 02:58:31;;;;;;;14.43;2.83;;;8.80;99.90;;;;;;5050473;28;20116;-64
2023/01/12 03:00:59;;;;;;;22.13;3.35;;;8.80;99.90;;;;;;5049929;28;20044;-64
2023/01/12 03:03:25;;;;;;;17.35;3.38;;;8.80;99.90;;;;;;5045289;28;20095;-64
2023/01/12 03:05:57;;;;;;;15.38;3.50;;;8.80;99.90;;;;;;5048475;28;20037;-64
2023/01/12 03:08:27;;;;;;;14.98;3.28;;;8.80;99.90;;;;;;5037359;28;20387;-64
2023/01/12 03:11:08;;;;;;;13.60;3.50;;;8.80;99.90;;;;;;5040915;28;20454;-64
2023/01/12 03:13:36;;;;;;;18.17;3.67;;;8.80;99.90;;;;;;5024076;28;20202;-64
2023/01/12 03:16:03;;;;;;;13.30;3.50;;;8.80;99.90;;;;;;5033963;28;20355;-64
2023/01/12 03:18:52;;;;;;;13.68;2.80;;;8.90;99.90;;;;;;5042316;28;20103;-64
2023/01/12 03:21:31;;;;;;;12.77;3.17;;;8.80;99.90;;;;;;5025341;28;20036;-64
2023/01/12 03:24:17;;;;;;;13.77;3.28;;;8.80;99.90;;;;;;5040841;28;20048;-64
2023/01/12 03:26:52;;;;;;;9.35;2.50;;;8.90;99.90;;;;;;5030779;28;20461;-64
2023/01/12 03:29:36;;;;;;;8.77;2.45;;;8.90;99.90;;;;;;5050323;28;20223;-64
2023/01/12 03:32:03;;;;;;;13.38;3.10;;;8.90;99.90;;;;;;5052107;28;20174;-64
2023/01/12 03:34:30;;;;;;;12.20;3.13;;;8.90;99.90;;;;;;5046181;28;20040;-64
2023/01/12 03:37:11;;;;;;;10.48;2.55;;;8.90;99.90;;;;;;5042711;28;20060;-64
2023/01/12 03:39:59;;;;;;;11.43;3.35;;;8.90;99.90;;;;;;5051791;28;20487;-64
2023/01/12 03:42:30;;;;;;;12.82;3.05;;;8.80;99.90;;;;;;5048227;28;20091;-64
2023/01/12 03:45:18;;;;;;;11.23;2.58;;;8.80;99.90;;;;;;5041642;28;20045;-64
2023/01/12 03:47:46;;;;;;;10.68;2.80;;;8.90;99.90;;;;;;5036918;28;20503;-64
2023/01/12 03:50:21;;;;;;;14.38;3.90;;;8.90;99.90;;;;;;5043751;28;20073;-64
2023/01/12 03:52:48;;;;;;;8.77;3.30;;;8.90;99.90;;;;;;5047633;28;20098;-64
2023/01/12 03:55:18;;;;;;;9.45;3.30;;;8.90;99.90;;;;;;5031331;28;20033;-64
2023/01/12 03:57:46;;;;;;;6.20;2.85;;;8.90;99.90;;;;;;5047002;28;20403;-64
2023/01/12 04:00:13;;;;;;;9.88;3.22;;;8.80;99.90;;;;;;5025274;28;20037;-64
2023/01/12 04:02:41;;;;;;;10.40;2.92;;;8.90;99.90;;;;;;5042508;28;20415;-64
2023/01/12 04:05:08;;;;;;;7.28;2.58;;;8.90;99.90;;;;;;5045901;28;20717;-64
2023/01/12 04:07:33;;;;;;;9.07;2.75;;;8.90;99.90;;;;;;5041501;28;20090;-64
2023/01/12 04:09:59;;;;;;;9.18;2.72;;;8.90;99.90;;;;;;5035742;28;20042;-64
2023/01/12 04:12:25;;;;;;;7.05;2.53;;;8.90;99.90;;;;;;5050277;28;20197;-64
2023/01/12 04:14:51;;;;;;;6.75;2.45;;;9.00;99.90;;;;;;5042387;28;20045;-64
2023/01/12 04:17:16;;;;;;;11.68;2.63;;;9.00;99.90;;;;;;5027018;28;20399;-64
2023/01/12 04:19:42;;;;;;;7.55;2.40;;;9.00;99.90;;;;;;5027184;28;20052;-64
2023/01/12 04:24:57;;;;;;;9.63;2.70;;;9.00;99.90;;;;;;5047293;28;20092;-64
2023/01/12 04:27:22;;;;;;;7.03;2.22;;;8.90;99.90;;;;;;5018729;28;20069;-64
2023/01/12 04:29:48;;;;;;;7.85;2.35;;;8.90;99.90;;;;;;5039283;28;20033;-64
2023/01/12 04:32:14;;;;;;;7.55;2.10;;;9.00;99.90;;;;;;5042243;28;20030;-64
2023/01/12 04:34:39;;;;;;;9.38;2.20;;;9.00;99.90;;;;;;5043486;28;20041;-64
2023/01/12 04:37:05;;;;;;;6.95;2.15;;;8.90;99.90;;;;;;5026346;28;20041;-64
2023/01/12 04:39:30;;;;;;;9.27;1.95;;;8.90;99.90;;;;;;5029741;28;20465;-64
2023/01/12 04:41:56;;;;;;;8.82;2.05;;;8.90;99.90;;;;;;5024188;28;20045;-64
2023/01/12 04:44:22;;;;;;;10.02;2.03;;;8.90;99.90;;;;;;5017222;28;20060;-64
2023/01/12 04:46:48;;;;;;;4.35;1.77;;;8.90;99.90;;;;;;5025451;28;20102;-64
2023/01/12 04:49:15;;;;;;;5.47;1.60;;;8.80;99.90;;;;;;5041974;28;20139;-64
2023/01/12 04:51:40;;;;;;;7.22;1.90;;;8.90;99.90;;;;;;5053696;28;20028;-64
2023/01/12 04:54:06;;;;;;;4.95;1.42;;;8.80;99.90;;;;;;5041436;28;20133;-64
2023/01/12 04:56:31;;;;;;;6.18;1.60;;;8.80;99.90;;;;;;5043583;28;21757;-64
2023/01/12 04:58:59;;;;;;;5.57;1.63;;;8.80;99.90;;;;;;5020624;28;20045;-64
2023/01/12 05:01:26;;;;;;;7.00;1.88;;;8.80;99.90;;;;;;5049085;28;20032;-64
2023/01/12 05:03:59;;;;;;;7.00;2.00;;;8.80;99.90;;;;;;5038964;28;20140;-64
2023/01/12 05:06:25;;;;;;;;;;;8.50;99.90;;;;;;5018963;28;20454;-64
2023/01/12 05:11:35;;;;;;;5.93;1.60;;;8.70;99.90;;;;;;5038170;28;20116;-64
2023/01/12 05:14:01;;;;;;;4.70;1.42;;;8.70;99.90;;;;;;5026006;28;20510;-64
2023/01/12 05:16:27;;;;;;;4.03;1.48;;;8.70;99.90;;;;;;5037319;28;20049;-64
2023/01/12 05:18:53;;;;;;;5.70;1.40;;;8.70;99.90;;;;;;5043366;28;20056;-64
2023/01/12 05:21:21;;;;;;;6.07;1.48;;;8.70;99.90;;;;;;5037633;28;20400;-64
2023/01/12 05:23:47;;;;;;;3.60;1.33;;;8.70;99.90;;;;;;5037215;28;20041;-64
2023/01/12 05:26:12;;;;;;;4.30;1.52;;;8.70;99.90;;;;;;5038055;28;20045;-64
2023/01/12 05:28:38;;;;;;;6.03;1.60;;;8.60;99.90;;;;;;5024958;28;20036;-64
2023/01/12 05:31:09;;;;;;;6.38;1.20;;;8.70;99.90;;;;;;5037377;28;21221;-64
2023/01/12 05:33:37;;;;;;;3.47;1.30;;;8.70;99.90;;;;;;5028479;28;20045;-64
2023/01/12 05:36:07;;;;;;;5.63;1.48;;;8.70;99.90;;;;;;5039067;28;20377;-64
2023/01/12 05:38:32;;;;;;;4.90;1.40;;;8.20;99.90;;;;;;5043585;28;20388;-63
2023/01/12 05:41:00;;;;;;;4.88;1.40;;;8.70;99.90;;;;;;5032885;28;20030;-64
2023/01/12 05:46:11;;;;;;;5.60;1.40;;;8.80;99.90;;;;;;5035560;28;20044;-63
2023/01/12 05:48:36;;;;;;;5.05;1.58;;;8.80;99.90;;;;;;5039746;28;20040;-64
2023/01/12 05:51:03;;;;;;;3.67;1.15;;;8.80;99.90;;;;;;5040005;28;20037;-66
2023/01/12 05:53:29;;;;;;;5.13;1.58;;;8.90;99.90;;;;;;5045995;28;20056;-64
2023/01/12 05:55:55;;;;;;;4.45;1.40;;;8.80;99.90;;;;;;5021780;28;20073;-63
2023/01/12 05:58:21;;;;;;;5.88;1.73;;;8.90;99.90;;;;;;5040244;28;20078;-64
2023/01/12 06:00:46;;;;;;;5.32;1.42;;;8.90;99.90;;;;;;5029434;28;20033;-65
2023/01/12 06:03:15;;;;;;;5.20;1.40;;;8.90;99.90;;;;;;5041814;28;20404;-65
2023/01/12 06:05:41;;;;;;;5.25;1.50;;;8.80;99.90;;;;;;5026109;28;20045;-65
2023/01/12 06:08:06;;;;;;;5.68;1.60;;;8.90;99.90;;;;;;5045149;28;20048;-66
2023/01/12 06:10:33;;;;;;;3.10;1.30;;;8.90;99.90;;;;;;5032983;28;20033;-63
2023/01/12 06:15:44;;;;;;;5.28;1.20;;;8.90;99.90;;;;;;5046169;28;20499;-64
2023/01/12 06:18:09;;;;;;;4.95;1.20;;;8.90;99.90;;;;;;5028339;28;20051;-65
2023/01/12 06:20:35;;;;;;;4.78;1.30;;;8.90;99.90;;;;;;5047216;28;20518;-66
2023/01/12 06:23:03;;;;;;;6.50;1.60;;;8.90;99.90;;;;;;5019031;28;20388;-65
2023/01/12 06:25:29;;;;;;;2.65;1.20;;;9.00;99.90;;;;;;5025629;28;20041;-66
2023/01/12 06:27:55;;;;;;;5.55;1.40;;;9.00;99.90;;;;;;5047652;28;20040;-64
2023/01/12 06:30:21;;;;;;;3.33;0.90;;;9.00;99.90;;;;;;5049638;28;20562;-65
2023/01/12 06:32:47;;;;;;;3.13;1.23;;;9.00;99.90;;;;;;5046015;28;20035;-64
2023/01/12 06:35:13;;;;;;;3.30;1.30;;;9.00;99.90;;;;;;5027003;28;20407;-66
2023/01/12 06:37:38;;;;;;;2.38;1.10;;;9.10;99.90;;;;;;5045817;28;20033;-64
2023/01/12 06:40:04;;;;;;;1.52;0.98;;;9.20;99.90;;;;;;5047668;28;20045;-64
2023/01/12 06:42:33;;;;;;;4.15;0.98;;;9.20;99.90;;;;;;5042818;28;20119;-64
2023/01/12 06:45:04;;;;;;;2.35;1.10;;;9.20;99.90;;;;;;5035498;28;20083;-64
2023/01/12 06:47:30;;;;;;;1.52;0.80;;;9.20;99.90;;;;;;5039810;28;20037;-65
2023/01/12 06:49:57;;;;;;;2.15;0.90;;;9.30;99.90;;;;;;5050599;28;20067;-65
2023/01/12 06:52:24;;;;;;;3.53;0.90;;;9.30;99.90;;;;;;5024554;28;20033;-64
2023/01/12 06:54:51;;;;;;;3.30;0.90;;;9.30;99.90;;;;;;5042507;28;20037;-65
2023/01/12 06:57:16;;;;;;;3.38;0.80;;;9.30;99.90;;;;;;5039465;28;20041;-64
2023/01/12 06:59:42;;;;;;;2.80;0.90;;;9.40;99.90;;;;;;5021446;28;20484;-65
2023/01/12 07:02:12;;;;;;;1.42;0.90;;;9.30;99.90;;;;;;5036275;28;20526;-65
2023/01/12 07:04:41;;;;;;;2.08;1.00;;;9.30;99.90;;;;;;5028654;28;20476;-66
2023/01/12 07:07:08;;;;;;;1.23;0.80;;;9.40;99.90;;;;;;5027508;28;20037;-64
2023/01/12 07:09:34;;;;;;;1.85;1.00;;;9.40;99.90;;;;;;5023055;28;20112;-64
2023/01/12 07:12:00;;;;;;;8.27;1.13;;;9.40;99.90;;;;;;5030584;28;20061;-64
2023/01/12 07:14:26;;;;;;;2.13;1.00;;;9.40;99.90;;;;;;5036169;28;20041;-64
2023/01/12 07:16:52;;;;;;;2.70;1.00;;;9.40;99.90;;;;;;5024839;28;20681;-64
2023/01/12 07:19:17;;;;;;;1.52;1.10;;;9.40;99.90;;;;;;5034944;28;20115;-64
2023/01/12 07:21:43;;;;;;;2.90;0.90;;;9.40;99.90;;;;;;5019780;28;20038;-64
2023/01/12 07:24:09;;;;;;;1.45;1.00;;;9.50;99.90;;;;;;5023405;28;20052;-65
2023/01/12 07:26:35;;;;;;;2.42;1.10;;;9.50;99.90;;;;;;5038665;28;20404;-67
2023/01/12 07:29:01;;;;;;;2.42;0.77;;;9.50;99.90;;;;;;5028976;28;20044;-63
2023/01/12 07:31:27;;;;;;;2.25;0.95;;;9.50;99.90;;;;;;5028915;28;20149;-62
2023/01/12 07:33:53;;;;;;;1.02;0.93;;;9.50;99.90;;;;;;5030669;28;20706;-62
2023/01/12 07:36:19;;;;;;;1.38;0.95;;;9.60;99.90;;;;;;5047738;28;20032;-63
2023/01/12 07:38:45;;;;;;;2.03;1.10;;;9.50;99.90;;;;;;5045537;28;20037;-65
2023/01/12 07:43:55;;;;;;;1.50;1.10;;;9.60;99.90;;;;;;5049566;28;20059;-63
2023/01/12 07:46:21;;;;;;;1.95;1.20;;;9.60;99.90;;;;;;5048773;28;20045;-63
2023/01/12 07:48:47;;;;;;;2.38;1.27;;;9.60;99.90;;;;;;5029700;28;20056;-64
2023/01/12 07:51:13;;;;;;;1.45;1.20;;;9.60;99.90;;;;;;5044754;28;20040;-63
2023/01/12 07:53:38;;;;;;;2.95;1.20;;;9.60;99.90;;;;;;5027515;28;20037;-63
2023/01/12 07:56:04;;;;;;;3.20;1.40;;;9.60;99.90;;;;;;5046171;28;20041;-63
2023/01/12 07:58:30;;;;;;;2.17;1.70;;;9.60;99.90;;;;;;5048619;28;20029;-64
2023/01/12 08:00:59;;;;;;;5.22;1.90;;;9.60;99.90;;;;;;5047714;28;20035;-64
2023/01/12 08:03:25;;;;;;;3.38;1.60;;;9.60;99.90;;;;;;5028857;28;20087;-64
2023/01/12 08:05:52;;;;;;;2.95;1.70;;;9.70;99.90;;;;;;5049310;28;20559;-64
2023/01/12 08:08:18;;;;;;;4.95;1.77;;;9.70;99.90;;;;;;5049212;28;20060;-63
2023/01/12 08:10:46;;;;;;;4.03;1.55;;;9.60;99.90;;;;;;5049450;28;20403;-64
2023/01/12 08:13:12;;;;;;;5.35;2.13;;;9.80;99.90;;;;;;5048817;28;20037;-64
2023/01/12 08:15:43;;;;;;;3.55;1.80;;;9.90;99.90;;;;;;5022026;28;20127;-63
2023/01/12 08:18:21;;;;;;;5.22;2.03;;;9.90;99.90;;;;;;5046699;28;20083;-64
2023/01/12 08:20:48;;;;;;;6.55;2.15;;;9.90;99.90;;;;;;5050906;28;20044;-63
2023/01/12 08:23:23;;;;;;;5.05;2.28;;;9.90;99.90;;;;;;5030227;28;21303;-64
2023/01/12 08:25:55;;;;;;;;;;;10.00;99.90;;;;;;5046387;28;20485;-64
2023/01/12 08:28:26;;;;;;;6.72;2.42;;;10.00;99.90;;;;;;5032946;28;19990;-64
2023/01/12 08:30:52;;;;;;;10.30;2.60;;;10.00;99.90;;;;;;5049871;28;20029;-63
2023/01/12 08:33:18;;;;;;;11.10;2.75;;;10.00;99.90;;;;;;5024783;28;20048;-63
2023/01/12 08:35:45;;;;;;;7.95;2.40;;;10.00;99.90;;;;;;5031098;28;20434;-63
2023/01/12 08:38:11;;;;;;;9.50;2.97;;;10.10;99.90;;;;;;5045688;28;20060;-63
2023/01/12 08:46:08;;;;;;;19.98;3.28;;;10.20;99.90;;;;;;5022472;28;20056;-65
2023/01/12 08:48:37;;;;;;;15.25;3.17;;;10.20;99.90;;;;;;5047658;28;20036;-65
2023/01/12 08:51:05;;;;;;;12.38;2.63;;;10.20;99.90;;;;;;5048604;28;20642;-63
2023/01/12 08:53:30;;;;;;;14.27;3.05;;;10.20;99.90;;;;;;5049458;28;20129;-63
2023/01/12 08:55:56;;;;;;;23.75;3.72;;;10.20;99.90;;;;;;5049868;28;20539;-64
2023/01/12 08:58:22;;;;;;;18.77;3.17;;;10.30;99.90;;;;;;5045625;28;20091;-64
2023/01/12 09:00:47;;;;;;;16.45;3.25;;;10.30;99.90;;;;;;5036157;28;20515;-64
2023/01/12 09:03:13;;;;;;;18.77;3.60;;;10.30;99.90;;;;;;5039087;28;20052;-63
2023/01/12 09:05:39;;;;;;;22.08;3.85;;;10.30;99.90;;;;;;5033205;28;20127;-63
2023/01/12 09:08:04;;;;;;;17.90;3.67;;;10.40;99.90;;;;;;5030853;28;20964;-63
2023/01/12 09:10:30;;;;;;;20.05;3.78;;;10.40;99.90;;;;;;5033253;28;20057;-64
2023/01/12 09:12:56;;;;;;;24.55;3.95;;;10.50;99.90;;;;;;5036828;28;20480;-66
2023/01/12 09:15:25;;;;;;;21.70;3.60;;;10.50;99.90;;;;;;5040264;28;20041;-64
2023/01/12 09:17:52;;;;;;;20.95;3.60;;;10.60;99.90;;;;;;5020830;28;20520;-64
2023/01/12 09:20:18;;;;;;;26.30;3.95;;;10.60;99.90;;;;;;5028502;28;20215;-65
2023/01/12 09:22:44;;;;;;;22.55;4.22;;;10.70;99.90;;;;;;5022867;28;20041;-74
2023/01/12 09:25:09;;;;;;;18.52;3.85;;;10.80;99.90;;;;;;5021958;28;20510;-65
2023/01/12 09:27:35;;;;;;;24.65;3.45;;;10.70;99.90;;;;;;5042780;28;20102;-64
2023/01/12 09:30:01;;;;;;;19.40;3.53;;;10.80;99.90;;;;;;5036046;28;20033;-64
2023/01/12 09:32:26;;;;;;;20.38;3.47;;;10.80;99.90;;;;;;5018106;28;20497;-64
2023/01/12 09:34:53;;;;;;;21.27;3.72;;;10.90;99.90;;;;;;5048130;28;20120;-65
2023/01/12 09:37:19;;;;;;;18.92;3.65;;;10.90;99.90;;;;;;5042242;28;20041;-62
2023/01/12 09:39:44;;;;;;;20.00;3.50;;;10.90;99.90;;;;;;5040033;28;20033;-62
2023/01/12 09:48:10;;;;;;;;;;;11.00;99.90;;;;;;5041494;28;20036;-65
2023/01/12 09:50:41;;;;;;;20.38;3.10;;;11.00;99.90;;;;;;5046317;28;19916;-64
2023/01/12 09:53:30;;;;;;;19.52;3.17;;;11.10;99.90;;;;;;5046956;28;20521;-66
2023/01/12 09:56:01;;;;;;;16.15;3.60;;;11.20;99.90;;;;;;5035357;28;20037;-66
2023/01/12 09:58:58;;;;;;;17.50;2.70;;;11.20;99.90;;;;;;5045938;28;20099;-60
2023/01/12 10:01:24;;;;;;;18.90;2.80;;;11.20;99.90;;;;;;5035080;28;21126;-65
2023/01/12 10:03:50;;;;;;;14.65;3.03;;;11.20;99.90;;;;;;5030860;28;20045;-64
2023/01/12 10:06:18;;;;;;;15.43;2.88;;;11.30;99.90;;;;;;5031863;28;20037;-65
2023/01/12 10:08:46;;;;;;;16.30;2.75;;;11.30;99.90;;;;;;5032181;28;20033;-64
2023/01/12 10:11:41;;;;;;;18.65;3.13;;;11.30;99.90;;;;;;5035092;28;20037;-65
2023/01/12 10:14:22;;;;;;;11.55;2.67;;;11.30;99.90;;;;;;5046662;28;20037;-65
2023/01/12 10:17:32;;;;;;;15.70;3.10;;;11.30;99.90;;;;;;5031222;28;20040;-64
2023/01/12 10:20:07;;;;;;;16.23;3.10;;;11.30;99.90;;;;;;5050379;28;20045;-64
2023/01/12 10:22:40;;;;;;;15.63;2.78;;;11.40;99.90;;;;;;5045921;28;20514;-64
2023/01/12 10:25:27;;;;;;;16.75;3.75;;;11.30;99.90;;;;;;5049882;28;20391;-65
2023/01/12 10:27:56;;;;;;;17.58;3.58;;;11.30;99.90;;;;;;5032422;28;20407;-65
2023/01/12 10:30:32;;;;;;;15.95;3.47;;;11.20;99.90;;;;;;5048535;28;20033;-65
2023/01/12 10:33:18;;;;;;;15.30;3.03;;;11.20;99.90;;;;;;5047811;28;20435;-64
2023/01/12 10:35:47;;;;;;;14.05;3.03;;;11.20;99.90;;;;;;5041565;28;20051;-65
2023/01/12 10:38:20;;;;;;;17.48;3.53;;;11.10;99.90;;;;;;5043137;28;20120;-65
2023/01/12 10:41:02;;;;;;;23.05;4.13;;;11.10;99.90;;;;;;5043069;28;20064;-64
2023/01/12 10:43:32;;;;;;;22.85;4.30;;;11.00;99.90;;;;;;5034811;28;20033;-65
2023/01/12 10:46:07;;;;;;;25.40;4.15;;;11.00;99.90;;;;;;5048464;28;20045;-65
2023/01/12 10:48:33;;;;;;;25.27;3.75;;;11.00;99.90;;;;;;5032875;28;20459;-65
2023/01/12 10:51:04;;;;;;;16.23;3.35;;;11.00;99.90;;;;;;5052307;28;20064;-64
2023/01/12 10:53:53;;;;;;;18.80;3.40;;;11.00;99.90;;;;;;5051655;28;20039;-65
2023/01/12 10:56:37;;;;;;;19.60;2.92;;;11.10;99.90;;;;;;5027883;28;20041;-62
2023/01/12 10:59:05;;;;;;;16.98;2.60;;;11.10;99.90;;;;;;5031247;28;20071;-64
2023/01/12 11:01:49;;;;;;;17.92;3.30;;;11.20;99.90;;;;;;5034691;28;20043;-64
2023/01/12 11:04:22;;;;;;;19.80;3.42;;;11.10;99.90;;;;;;5045259;28;20037;-64
2023/01/12 11:07:07;;;;;;;19.38;4.03;;;11.10;99.90;;;;;;5044539;28;20420;-65
2023/01/12 11:09:33;;;;;;;15.55;2.88;;;11.20;99.90;;;;;;5018860;28;20049;-65
2023/01/12 11:12:28;;;;;;;23.42;3.55;;;11.30;99.90;;;;;;5023762;28;20147;-65
2023/01/12 11:14:56;;;;;;;15.80;3.17;;;11.30;99.90;;;;;;5029526;28;20136;-64
2023/01/12 11:17:37;;;;;;;20.58;3.38;;;11.30;99.90;;;;;;5025966;28;20119;-64
2023/01/12 11:20:25;;;;;;;17.92;3.13;;;11.30;99.90;;;;;;5033354;28;20116;-62
2023/01/12 11:22:59;;;;;;;16.48;3.17;;;11.30;99.90;;;;;;5037330;28;20057;-64
2023/01/12 11:25:31;;;;;;;17.95;3.33;;;11.40;99.90;;;;;;5042860;28;20113;-63
2023/01/12 11:28:12;;;;;;;22.20;4.05;;;11.40;99.90;;;;;;5032404;28;20074;-64
2023/01/12 11:30:47;;;;;;;18.20;3.53;;;11.50;99.90;;;;;;5043982;28;20043;-61
2023/01/12 11:33:22;;;;;;;16.95;3.22;;;11.50;99.90;;;;;;5037717;28;20095;-64
2023/01/12 11:36:12;;;;;;;14.70;2.95;;;11.50;99.90;;;;;;5037858;28;20124;-62
2023/01/12 11:38:42;;;;;;;18.90;3.20;;;11.60;99.90;;;;;;5025919;28;20069;-64
2023/01/12 11:41:18;;;;;;;22.30;3.95;;;11.60;99.90;;;;;;5022442;28;20407;-64
2023/01/12 11:44:16;;;;;;;17.42;3.63;;;11.60;99.90;;;;;;5036603;28;20094;-62
2023/01/12 11:46:52;;;;;;;16.00;3.55;;;11.60;99.90;;;;;;5024161;28;20045;-62
2023/01/12 11:49:23;;;;;;;20.65;3.50;;;11.60;99.90;;;;;;5047407;28;20392;-64
2023/01/12 11:51:55;;;;;;;20.85;3.63;;;11.60;99.90;;;;;;5029606;28;20040;-64
2023/01/12 11:54:23;;;;;;;22.88;4.30;;;11.60;99.90;;;;;;5035067;28;20054;-64
2023/01/12 11:57:14;;;;;;;19.88;3.83;;;11.60;99.90;;;;;;5031175;28;20399;-64
2023/01/12 12:00:25;;;;;;;22.63;4.22;;;11.50;99.90;;;;;;5035604;28;20116;-64
2023/01/12 12:03:27;;;;;;;21.10;4.20;;;11.50;99.90;;;;;;4999303;28;20512;-62
2023/01/12 12:06:03;;;;;;;22.30;5.05;;;11.40;99.90;;;;;;5035839;28;20063;-65
2023/01/12 12:08:48;;;;;;;25.75;4.18;;;11.40;99.90;;;;;;5020188;28;20045;-64
2023/01/12 12:11:40;;;;;;;21.45;3.25;;;11.40;99.90;;;;;;5034799;28;20033;-63
2023/01/12 12:14:20;;;;;;;25.30;4.47;;;11.40;99.90;;;;;;5006603;28;20045;-63
2023/01/12 12:17:14;;;;;;;16.77;3.83;;;11.50;99.90;;;;;;5039464;28;20095;-64
2023/01/12 12:20:02;;;;;;;23.27;3.75;;;11.50;99.90;;;;;;5045474;28;20079;-64
2023/01/12 12:23:14;;;;;;;20.02;4.32;;;11.50;99.90;;;;;;5023624;28;20048;-64
2023/01/12 12:26:17;;;;;;;19.63;3.72;;;11.50;99.90;;;;;;5029341;28;20503;-65
2023/01/12 12:29:12;;;;;;;15.23;2.95;;;11.60;99.90;;;;;;5043606;28;20129;-64
2023/01/12 12:32:03;;;;;;;18.60;3.47;;;11.60;99.90;;;;;;5039827;28;20037;-63
2023/01/12 12:35:13;;;;;;;15.30;3.13;;;11.60;99.90;;;;;;5043416;28;20041;-64
2023/01/12 12:37:51;;;;;;;20.58;3.08;;;11.60;99.90;;;;;;5036494;28;20064;-65
2023/01/12 12:47:06;;;;;;;20.17;3.67;;;11.70;99.90;;;;;;5023248;28;20220;-64
2023/01/12 12:49:34;;;;;;;12.95;3.38;;;11.80;99.90;;;;;;5031635;28;20134;-64
2023/01/12 12:52:00;;;;;;;15.95;3.58;;;11.80;99.90;;;;;;5023321;28;21709;-65
2023/01/12 12:54:28;;;;;;;24.50;4.00;;;11.80;99.90;;;;;;5043024;28;20194;-64
2023/01/12 12:56:54;;;;;;;24.52;3.58;;;11.80;99.90;;;;;;5043930;28;20049;-65
2023/01/12 12:59:32;;;;;;;16.60;3.08;;;11.80;99.90;;;;;;5027613;28;20048;-65
2023/01/12 13:01:59;;;;;;;16.98;3.25;;;11.80;99.90;;;;;;5022770;28;20037;-65
2023/01/12 13:04:56;;;;;;;20.63;3.72;;;11.80;99.90;;;;;;5018348;28;20171;-62
2023/01/12 13:07:22;;;;;;;17.50;3.30;;;11.80;99.90;;;;;;5013650;28;20418;-64
2023/01/12 13:09:48;;;;;;;16.60;2.80;;;11.80;99.90;;;;;;5044240;28;20044;-65
2023/01/12 13:12:19;;;;;;;17.13;3.00;;;11.70;99.90;;;;;;5046404;28;20087;-65
2023/01/12 13:15:24;;;;;;;9.13;2.50;;;11.70;99.90;;;;;;5028516;28;20053;-62
2023/01/12 13:17:51;;;;;;;13.57;2.60;;;11.70;99.90;;;;;;5025404;28;20116;-64
2023/01/12 13:20:17;;;;;;;18.10;2.58;;;11.60;99.90;;;;;;5026947;28;20076;-64
2023/01/12 13:22:49;;;;;;;12.95;2.45;;;11.70;99.90;;;;;;5049372;28;20064;-64
2023/01/12 13:25:15;;;;;;;14.77;2.70;;;11.60;99.90;;;;;;5037246;28;20064;-64
2023/01/12 13:27:51;;;;;;;17.13;3.20;;;11.50;99.90;;;;;;5026955;28;20044;-63
2023/01/12 13:30:28;;;;;;;17.80;3.20;;;11.50;99.90;;;;;;5041482;28;20190;-65
2023/01/12 13:33:12;;;;;;;15.93;3.10;;;11.50;99.90;;;;;;5023669;28;20466;-65
2023/01/12 13:35:39;;;;;;;12.55;3.15;;;11.40;99.90;;;;;;5041271;28;20040;-65
2023/01/12 13:38:32;;;;;;;9.57;2.25;;;11.30;99.90;;;;;;5043454;28;20131;-65
2023/01/12 13:44:09;;;;;;;8.82;2.47;;;11.30;99.90;;;;;;5030294;28;20053;-65
2023/01/12 13:46:59;;;;;;;10.63;1.95;;;11.30;99.90;;;;;;5042729;28;20033;-64
2023/01/12 13:49:32;;;;;;;6.30;2.05;;;11.20;99.90;;;;;;5024789;28;20124;-65
2023/01/12 13:52:06;;;;;;;6.38;2.08;;;11.20;99.90;;;;;;5030057;28;20068;-65
2023/01/12 13:54:33;;;;;;;8.65;2.40;;;11.10;99.90;;;;;;5047199;28;20045;-64
2023/01/12 13:57:09;;;;;;;9.85;2.40;;;11.20;99.90;;;;;;5048343;28;20045;-65